Accueil
METAR-TAF:

METAR-TAF

Aéroports :

Ormond Beach Municipal Airport

Ormond Beach, Floride, États-Unis

latitude: 29-18-04N, longitude: 081-06-49W, altitude: 9 m

Observation

Le bulletin a été fait il y a 1 heure et 3 minutes, à 16:50 UTC
Vent 8 kt de est/nord-est
Température 32°C
Humidité 67%
Pression 1020 hPa
Visibilité: 11.3 km
Nuages épars à une hauteur de 2400 ft

METAR: KOMN 161650Z 06008KT 7SM SCT024 32/25 A3012

Heure: 13:53 (17:53 UTC)


TAF: absent

Observations et prévisions météorologiques de plus de 4000 aéroports (messages METAR et TAF).

Les stations disponibles sont représentées par des disques jaunes et rouges sur la carte.

Passer la souris dessus pour voir le nom de la station.

Cliquer dessus pour voir les observations et prévisions météorologiques.

Pour changer de carte: cliquez sur les boutons verts avec une croix noire pour zoomer, sur le bouton vert avec un tiret pour effectuer un zoom arrière, ou sur les flèches vertes pour les cartes adjacentes.


METAR-TAF: